createdAt,value
2018-04-27T04:09:49.656Z,168
2018-04-27T04:10:15.125Z,172
2018-04-27T04:10:40.635Z,176
2018-04-27T04:11:06.182Z,180
2018-04-27T04:11:31.618Z,188
2018-04-27T04:11:57.098Z,192
2018-04-27T04:12:22.550Z,196
2018-04-27T04:12:48.029Z,200
2018-04-27T04:13:13.860Z,204
2018-04-27T04:13:39.278Z,212
2018-04-27T04:14:04.930Z,216
2018-04-27T04:14:30.429Z,216
2018-04-27T04:14:55.922Z,220
2018-04-27T04:15:21.398Z,224
2018-04-27T04:15:46.840Z,232
2018-04-27T04:17:05.268Z,248
2018-04-27T04:17:30.751Z,256
2018-04-27T04:17:56.242Z,260
2018-04-27T04:18:21.742Z,264
2018-04-27T04:18:47.264Z,268
2018-04-27T04:19:12.748Z,276
2018-04-27T04:19:38.213Z,284
2018-04-27T04:20:03.688Z,288
2018-04-27T04:20:29.177Z,300
2018-04-27T04:20:54.631Z,304
2018-04-27T04:21:20.113Z,316
2018-04-27T04:21:45.600Z,324
2018-04-27T04:22:11.050Z,332
2018-04-27T04:22:36.542Z,344
2018-04-27T04:23:02.024Z,352
2018-04-27T04:23:27.648Z,360
2018-04-27T04:23:53.024Z,368
2018-04-27T04:24:18.542Z,372
2018-04-27T04:24:44.032Z,380
2018-04-27T04:25:09.517Z,392
2018-04-27T04:25:34.996Z,396
2018-04-27T04:26:00.484Z,400
2018-04-27T04:26:26.007Z,408
2018-04-27T04:26:51.528Z,412
2018-04-27T04:27:17.033Z,424
2018-04-27T04:27:42.536Z,428
2018-04-27T04:28:08.032Z,436
2018-04-27T04:28:33.521Z,444
2018-04-27T04:28:59.044Z,452
2018-04-27T04:29:24.587Z,456
2018-04-27T04:29:50.007Z,468
2018-04-27T04:30:15.474Z,476
2018-04-27T04:30:41.341Z,480
2018-04-27T04:31:07.085Z,488
2018-04-27T04:31:32.631Z,496
2018-04-27T04:31:58.116Z,508
2018-04-27T04:32:23.793Z,516
2018-04-27T04:32:49.410Z,524
2018-04-27T04:33:14.979Z,532
2018-04-27T04:33:40.699Z,540
2018-04-27T04:34:06.260Z,548
2018-04-27T04:34:41.407Z,560
2018-04-27T04:35:07.110Z,572
2018-04-27T04:35:32.663Z,580
2018-04-27T04:35:58.163Z,584
2018-04-27T04:36:23.712Z,592
2018-04-27T04:36:49.175Z,604
2018-04-27T04:37:14.725Z,616
2018-04-27T04:37:40.257Z,624
2018-04-27T04:38:05.729Z,632
2018-04-27T04:38:31.208Z,640
2018-04-27T04:38:56.748Z,648
2018-04-27T04:39:22.184Z,660
2018-04-27T04:39:47.677Z,668
2018-04-27T04:40:13.112Z,680
2018-04-27T04:40:38.569Z,688
2018-04-27T04:41:04.043Z,700
2018-04-27T04:41:29.516Z,708
2018-04-27T04:41:54.972Z,716
2018-04-27T04:42:20.596Z,724
2018-04-27T04:42:46.097Z,736
2018-04-27T04:43:11.563Z,748
2018-04-27T04:43:37.061Z,756
2018-04-27T04:44:02.560Z,768
2018-04-27T04:44:28.051Z,780
2018-04-27T04:44:53.513Z,792
2018-04-27T04:45:19.022Z,800
2018-04-27T04:45:44.569Z,812
2018-04-27T04:46:10.022Z,820
2018-04-27T04:46:35.535Z,832
2018-04-27T04:47:01.015Z,844
2018-04-27T04:47:26.473Z,856
2018-04-27T04:47:51.934Z,868
2018-04-27T04:48:17.436Z,884
2018-04-27T04:48:42.920Z,896
2018-04-27T04:49:08.416Z,912
2018-04-27T04:49:33.909Z,928
2018-04-27T04:49:59.350Z,940
2018-04-27T04:50:24.906Z,956
2018-04-27T04:50:50.310Z,972
2018-04-27T04:51:15.773Z,992
2018-04-27T04:51:41.293Z,1012
2018-04-27T04:52:06.818Z,1032
2018-04-27T04:52:32.331Z,1056
2018-04-27T04:52:57.791Z,1080
2018-04-27T04:53:23.248Z,1108
2018-04-27T04:53:48.760Z,1132
2018-04-27T04:54:14.258Z,1156
2018-04-27T04:54:39.793Z,1176
2018-04-27T04:55:05.297Z,1192
2018-04-27T04:55:30.785Z,1212
2018-04-27T04:55:56.265Z,1228
2018-04-27T04:56:21.763Z,1252
2018-04-27T04:56:47.198Z,1272
2018-04-27T04:57:12.690Z,1296
2018-04-27T04:57:38.175Z,1328
2018-04-27T04:58:03.681Z,1368
2018-04-27T04:58:29.154Z,1416
2018-04-27T04:58:54.671Z,1472
2018-04-27T04:59:20.197Z,1536
2018-04-27T04:59:45.677Z,1596
2018-04-27T05:00:11.159Z,1644
2018-04-27T05:00:36.666Z,1696
2018-04-27T05:01:02.176Z,1744
2018-04-27T05:01:27.677Z,1792
2018-04-27T05:01:53.170Z,1824
2018-04-27T05:02:18.654Z,1844
2018-04-27T05:02:44.265Z,1864
2018-04-27T05:03:09.580Z,1884
2018-04-27T05:03:35.149Z,1888
2018-04-27T05:04:00.601Z,1920
2018-04-27T05:04:26.144Z,2004
2018-04-27T05:04:51.618Z,2052
2018-04-27T05:05:17.285Z,2072
2018-04-27T05:05:43.150Z,2132
2018-04-27T05:06:08.897Z,2160
2018-04-27T05:06:34.621Z,2164
2018-04-27T05:07:00.233Z,2164
2018-04-27T05:07:25.835Z,2212
2018-04-27T05:07:51.551Z,2340
2018-04-27T05:08:17.250Z,2508
2018-04-27T05:08:42.868Z,2600
2018-04-27T05:09:08.453Z,2632
2018-04-27T05:09:34.158Z,2556
2018-04-27T05:09:59.677Z,2624
2018-04-27T05:10:25.194Z,2708
2018-04-27T05:10:50.730Z,2736
2018-04-27T05:11:16.310Z,2760
2018-04-27T05:11:41.767Z,2792
2018-04-27T05:12:07.267Z,2820
2018-04-27T05:12:32.743Z,2836
2018-04-27T05:12:58.253Z,2868
2018-04-27T05:13:23.781Z,2892
2018-04-27T05:13:49.240Z,2908
2018-04-27T05:14:14.784Z,2924
2018-04-27T05:14:40.249Z,2948
2018-04-27T05:15:05.771Z,2968
2018-04-27T05:15:31.301Z,2992
2018-04-27T05:15:56.868Z,3012
2018-04-27T05:16:22.431Z,3032
2018-04-27T05:16:47.977Z,3060
2018-04-27T05:17:13.508Z,3080
2018-04-27T05:17:39.018Z,3104
2018-04-27T05:18:04.552Z,3128
2018-04-27T05:18:30.102Z,3164
2018-04-27T05:18:55.598Z,3180
2018-04-27T05:19:21.206Z,3116
2018-04-27T05:19:46.742Z,3052
2018-04-27T05:20:12.402Z,3108
2018-04-27T05:20:37.922Z,3136
2018-04-27T05:21:03.413Z,3080
2018-04-27T05:21:29.005Z,3072
2018-04-27T05:21:54.521Z,3128
2018-04-27T05:22:20.199Z,3132
2018-04-27T05:22:45.599Z,3148
2018-04-27T05:23:11.093Z,3192
2018-04-27T05:23:36.662Z,3280
2018-04-27T05:24:02.221Z,3304
2018-04-27T05:24:28.169Z,3144
2018-04-27T05:24:54.004Z,3348
2018-04-27T05:25:19.580Z,3372
2018-04-27T05:25:45.783Z,3540
2018-04-27T05:26:11.151Z,3576
2018-04-27T05:26:36.858Z,3576
2018-04-27T05:27:02.712Z,3572
2018-04-27T05:27:28.384Z,3580
2018-04-27T05:27:54.053Z,3572
2018-04-27T05:28:19.582Z,3572
2018-04-27T05:28:45.063Z,3568
2018-04-27T05:29:10.565Z,3572
2018-04-27T05:29:36.134Z,3576
2018-04-27T05:30:01.529Z,3580
2018-04-27T05:30:27.125Z,3600
2018-04-27T05:30:52.508Z,3624
2018-04-27T05:31:18.041Z,3644
2018-04-27T05:31:43.517Z,3652
2018-04-27T05:32:09.008Z,3640
2018-04-27T05:32:34.505Z,3220
2018-04-27T05:33:00.074Z,2952
2018-04-27T05:33:25.548Z,2840
2018-04-27T05:33:51.063Z,2380
2018-04-27T05:34:16.700Z,2848
2018-04-27T05:34:42.211Z,3792
2018-04-27T05:35:07.929Z,3908
2018-04-27T05:35:33.916Z,3872
2018-04-27T05:35:59.465Z,3816
2018-04-27T05:36:25.058Z,3828
2018-04-27T05:36:50.616Z,3696
2018-04-27T05:37:16.191Z,3440
2018-04-27T05:37:41.707Z,3784
2018-04-27T05:38:07.214Z,3764
2018-04-27T05:38:32.872Z,3804
2018-04-27T05:38:58.313Z,3792
2018-04-27T05:39:23.821Z,3688
2018-04-27T05:39:49.331Z,3644
2018-04-27T05:40:14.820Z,3584
2018-04-27T05:40:40.386Z,3604
2018-04-27T05:41:05.731Z,3744
2018-04-27T05:41:31.277Z,3832
2018-04-27T05:41:56.701Z,3832
2018-04-27T05:42:22.186Z,3856
2018-04-27T05:42:47.826Z,4096
2018-04-27T05:43:13.213Z,4140
2018-04-27T05:43:38.718Z,4088
2018-04-27T05:44:04.349Z,4016
2018-04-27T05:44:29.792Z,3836
2018-04-27T05:45:43.239Z,4340
2018-04-27T05:46:09.042Z,4364
2018-04-27T05:46:34.798Z,4404
2018-04-27T05:47:00.228Z,4432
2018-04-27T05:47:25.895Z,4480
2018-04-27T05:47:51.416Z,4540
2018-04-27T05:48:16.955Z,4572
2018-04-27T05:48:42.486Z,4444
2018-04-27T05:49:07.983Z,4424
2018-04-27T05:49:33.503Z,4552
2018-04-27T05:49:58.967Z,4628
2018-04-27T05:50:24.484Z,4680
2018-04-27T05:50:49.988Z,4776
2018-04-27T05:51:15.482Z,4924
2018-04-27T05:51:40.978Z,5036
2018-04-27T05:52:06.527Z,5208
2018-04-27T05:52:32.173Z,5388
2018-04-27T05:52:57.683Z,5388
2018-04-27T05:53:23.147Z,5012
2018-04-27T05:53:48.651Z,5108
2018-04-27T05:54:14.197Z,5480
2018-04-27T05:54:40.242Z,5696
2018-04-27T05:55:05.536Z,5724
2018-04-27T05:55:31.088Z,5760
2018-04-27T05:55:56.664Z,5776
2018-04-27T05:56:22.136Z,5744
2018-04-27T05:56:48.580Z,5784
2018-04-27T05:57:14.083Z,5708
2018-04-27T05:57:39.939Z,5640
2018-04-27T05:58:05.700Z,5628
2018-04-27T05:58:31.187Z,5632
2018-04-27T05:58:56.795Z,5572
2018-04-27T05:59:22.313Z,4952
2018-04-27T05:59:47.945Z,4836
2018-04-27T06:00:13.698Z,5356
2018-04-27T06:00:39.381Z,5112
2018-04-27T06:01:05.106Z,4772
2018-04-27T06:01:31.124Z,5000
2018-04-27T06:01:57.040Z,4656
2018-04-27T06:02:22.966Z,4660
2018-04-27T06:02:49.187Z,4720
2018-04-27T06:03:14.755Z,4964
2018-04-27T06:03:40.213Z,5296
2018-04-27T06:04:05.906Z,4932
2018-04-27T06:04:31.508Z,4960
2018-04-27T06:04:57.461Z,5152
2018-04-27T06:05:23.153Z,5112
2018-04-27T06:05:49.196Z,4832
2018-04-27T06:06:14.535Z,4944
2018-04-27T06:06:40.218Z,4948
2018-04-27T06:07:05.824Z,4956
2018-04-27T06:07:31.388Z,5496
2018-04-27T06:07:57.025Z,5460
2018-04-27T06:08:22.603Z,5324
2018-04-27T06:08:48.137Z,5500
2018-04-27T06:09:13.651Z,5464
2018-04-27T06:09:39.165Z,5484
2018-04-27T06:10:04.809Z,5684
2018-04-27T06:10:30.298Z,5628
2018-04-27T06:10:55.791Z,5676
2018-04-27T06:11:21.315Z,5636
2018-04-27T06:11:46.853Z,5716
2018-04-27T06:12:12.549Z,5868
2018-04-27T06:12:38.133Z,5540
2018-04-27T06:13:03.640Z,5428
2018-04-27T06:13:29.242Z,5048
2018-04-27T06:13:54.953Z,5444
2018-04-27T06:14:20.393Z,5424
2018-04-27T06:14:45.911Z,5440
2018-04-27T06:15:11.594Z,5332
2018-04-27T06:15:37.018Z,4868
2018-04-27T06:16:02.562Z,5496
2018-04-27T06:16:28.066Z,5656
2018-04-27T06:16:53.973Z,5688
2018-04-27T06:17:19.584Z,5560
2018-04-27T06:17:45.651Z,5632
2018-04-27T06:18:11.242Z,5616
2018-04-27T06:18:37.643Z,5572
2018-04-27T06:19:02.964Z,5680
2018-04-27T06:19:28.462Z,5684
2018-04-27T06:19:53.961Z,5760
2018-04-27T06:20:19.662Z,5832
2018-04-27T06:20:45.394Z,5668
2018-04-27T06:21:11.078Z,5848
2018-04-27T06:21:36.563Z,5936
2018-04-27T06:22:02.261Z,5936
2018-04-27T06:22:27.839Z,5908
2018-04-27T06:22:53.479Z,6028
2018-04-27T06:23:18.983Z,6076
2018-04-27T06:23:44.604Z,6028
2018-04-27T06:24:10.201Z,5748
2018-04-27T06:24:35.702Z,6068
2018-04-27T06:25:01.286Z,6220
2018-04-27T06:25:26.893Z,6260
2018-04-27T06:25:52.594Z,6356
2018-04-27T06:26:18.257Z,6516
2018-04-27T06:26:43.900Z,6676
2018-04-27T06:27:09.567Z,6720
2018-04-27T06:27:35.543Z,6656
2018-04-27T06:28:01.164Z,6752
2018-04-27T06:28:26.630Z,6780
2018-04-27T06:28:52.243Z,6836
2018-04-27T06:29:17.966Z,7008
2018-04-27T06:29:43.526Z,6968
2018-04-27T06:30:09.130Z,7076
2018-04-27T06:30:34.788Z,7200
2018-04-27T06:31:00.519Z,7344
2018-04-27T06:31:26.394Z,7416
2018-04-27T06:31:52.208Z,7544
2018-04-27T06:32:17.793Z,7568
2018-04-27T06:32:43.349Z,7548
2018-04-27T06:33:08.868Z,7496
2018-04-27T06:33:34.438Z,7420
2018-04-27T06:33:59.976Z,7440
2018-04-27T06:34:26.184Z,7460
2018-04-27T06:34:52.398Z,7740
2018-04-27T06:35:17.900Z,7764
2018-04-27T06:35:43.458Z,7688
2018-04-27T06:36:09.012Z,7740
2018-04-27T06:36:34.550Z,7848
2018-04-27T06:37:00.116Z,7952
2018-04-27T06:37:25.646Z,7940
2018-04-27T06:37:51.219Z,7900
2018-04-27T06:38:16.763Z,7932
2018-04-27T06:38:42.297Z,8104
2018-04-27T06:39:07.874Z,8080
2018-04-27T06:39:33.474Z,8064
2018-04-27T06:39:59.064Z,7512
2018-04-27T06:40:24.703Z,8624
2018-04-27T06:40:50.294Z,8848
2018-04-27T06:41:15.919Z,9128
2018-04-27T06:41:41.382Z,9468
2018-04-27T06:42:06.953Z,9856
2018-04-27T06:42:32.513Z,10476
2018-04-27T06:42:58.047Z,11200
2018-04-27T06:43:23.620Z,11980
2018-04-27T06:43:49.348Z,12164
2018-04-27T06:44:15.208Z,12652
2018-04-27T06:44:40.796Z,12864
2018-04-27T06:45:06.569Z,12908
2018-04-27T06:45:32.305Z,12988
2018-04-27T06:45:57.912Z,13096
2018-04-27T06:46:23.809Z,13040
2018-04-27T06:46:49.522Z,13284
2018-04-27T06:47:15.957Z,13948
2018-04-27T06:47:41.652Z,14728
2018-04-27T06:48:07.201Z,16192
2018-04-27T06:48:32.845Z,17760
2018-04-27T06:48:58.820Z,19712
2018-04-27T06:49:24.449Z,22464
2018-04-27T06:49:50.124Z,24000
2018-04-27T06:50:15.758Z,24288
2018-04-27T06:50:41.415Z,23936
2018-04-27T06:51:07.336Z,22272
2018-04-27T06:51:33.121Z,20800
2018-04-27T06:51:59.041Z,18400
2018-04-27T06:52:24.831Z,15968
2018-04-27T06:52:50.590Z,15104
2018-04-27T06:53:16.660Z,14848
2018-04-27T06:53:42.173Z,14404
2018-04-27T06:54:08.118Z,14436
2018-04-27T06:54:34.161Z,13512
2018-04-27T06:54:59.467Z,15456
2018-04-27T06:55:25.022Z,16256
2018-04-27T06:55:50.562Z,17792
2018-04-27T06:56:16.097Z,20256
2018-04-27T06:56:41.645Z,22112
2018-04-27T06:57:07.246Z,22176
2018-04-27T06:57:33.217Z,20992
2018-04-27T06:57:59.844Z,18720
2018-04-27T06:58:25.593Z,16064
2018-04-27T06:58:51.174Z,13000
2018-04-27T06:59:16.707Z,10312
2018-04-27T06:59:42.357Z,8812
2018-04-27T07:00:08.499Z,8184
2018-04-27T07:00:34.025Z,7992
2018-04-27T07:00:59.651Z,7768
2018-04-27T07:01:25.243Z,7244
2018-04-27T07:01:51.193Z,7892
2018-04-27T07:02:16.986Z,7656
2018-04-27T07:02:42.808Z,7564
2018-04-27T07:03:08.691Z,7508
2018-04-27T07:03:34.325Z,7440
2018-04-27T07:03:59.958Z,7348
2018-04-27T07:04:25.572Z,7284
2018-04-27T07:04:51.186Z,7240
2018-04-27T07:05:16.873Z,7188
2018-04-27T07:05:42.445Z,7152
2018-04-27T07:06:07.996Z,7176
2018-04-27T07:06:33.608Z,7248
2018-04-27T07:06:59.182Z,7124
2018-04-27T07:07:24.700Z,6944
2018-04-27T07:07:50.414Z,7328
2018-04-27T07:08:16.023Z,7432
2018-04-27T07:08:41.649Z,7388
2018-04-27T07:09:07.231Z,7424
2018-04-27T07:09:32.864Z,7368
2018-04-27T07:09:58.414Z,7360
2018-04-27T07:10:23.938Z,7316
2018-04-27T07:10:49.553Z,7272
2018-04-27T07:11:15.170Z,7248
2018-04-27T07:11:40.816Z,6836
2018-04-27T07:12:06.443Z,6592
2018-04-27T07:12:32.020Z,7044
2018-04-27T07:12:57.603Z,7180
2018-04-27T07:13:23.108Z,6992
2018-04-27T07:13:49.340Z,7212
2018-04-27T07:14:15.096Z,7276
2018-04-27T07:14:41.009Z,7276
2018-04-27T07:15:06.699Z,7148
2018-04-27T07:15:32.233Z,7004
2018-04-27T07:15:57.769Z,7148
2018-04-27T07:16:23.277Z,7112
2018-04-27T07:16:48.787Z,7236
2018-04-27T07:17:14.472Z,7336
2018-04-27T07:17:39.994Z,7436
2018-04-27T07:18:05.462Z,7444
2018-04-27T07:18:31.002Z,7380
2018-04-27T07:18:56.530Z,7336
2018-04-27T07:19:22.046Z,7248
2018-04-27T07:19:47.662Z,7180
2018-04-27T07:20:13.127Z,7172
2018-04-27T07:20:38.764Z,7340
2018-04-27T07:21:04.310Z,7344
2018-04-27T07:21:30.062Z,7332
2018-04-27T07:21:55.606Z,7216
2018-04-27T07:22:21.104Z,7404
2018-04-27T07:22:46.704Z,7364
2018-04-27T07:23:12.244Z,7392
2018-04-27T07:23:37.749Z,7408
2018-04-27T07:24:03.607Z,7432
2018-04-27T07:24:29.199Z,7464
2018-04-27T07:24:54.771Z,7492
2018-04-27T07:25:20.264Z,7560
2018-04-27T07:25:45.845Z,7348
2018-04-27T07:26:11.359Z,6668
2018-04-27T07:26:36.969Z,7228
2018-04-27T07:27:02.417Z,7464
2018-04-27T07:27:27.955Z,7456
2018-04-27T07:27:53.538Z,7416
2018-04-27T07:28:19.007Z,7412
2018-04-27T07:28:44.619Z,7420
2018-04-27T07:29:10.155Z,7452
2018-04-27T07:29:35.700Z,7440
2018-04-27T07:30:01.257Z,7444
2018-04-27T07:30:26.860Z,7432
2018-04-27T07:30:52.397Z,7464
2018-04-27T07:31:17.984Z,7356
2018-04-27T07:31:43.532Z,6920
2018-04-27T07:32:09.161Z,7152
2018-04-27T07:32:34.660Z,7032
2018-04-27T07:33:00.814Z,7176
2018-04-27T07:33:26.658Z,7296
2018-04-27T07:33:52.381Z,7356
2018-04-27T07:34:17.978Z,7428
2018-04-27T07:34:43.561Z,7428
2018-04-27T07:35:09.214Z,7360
2018-04-27T07:35:35.051Z,7556
2018-04-27T07:36:00.810Z,7604
2018-04-27T07:36:26.408Z,7644
2018-04-27T07:36:52.089Z,7608
2018-04-27T07:37:17.740Z,7584
2018-04-27T07:37:43.393Z,7552
2018-04-27T07:38:08.981Z,7564
2018-04-27T07:38:34.538Z,7564
2018-04-27T07:39:00.094Z,7532
2018-04-27T07:39:25.594Z,7556
2018-04-27T07:39:51.127Z,7580
2018-04-27T07:40:16.740Z,7644
2018-04-27T07:40:42.412Z,7648
2018-04-27T07:41:08.247Z,7680
2018-04-27T07:41:33.601Z,7656
2018-04-27T07:41:59.354Z,7712
2018-04-27T07:42:24.782Z,7652
2018-04-27T07:42:50.326Z,7596
2018-04-27T07:43:16.099Z,7568
2018-04-27T07:43:42.418Z,7536
2018-04-27T07:44:08.013Z,7516
2018-04-27T07:44:33.755Z,7508
2018-04-27T07:44:59.313Z,7460
2018-04-27T07:45:24.835Z,7396
2018-04-27T07:45:50.349Z,7396
2018-04-27T07:46:15.957Z,7416
2018-04-27T07:46:41.478Z,7408
2018-04-27T07:47:07.226Z,7392
2018-04-27T07:47:32.929Z,7396
2018-04-27T07:47:58.490Z,7368
2018-04-27T07:48:24.696Z,7392
2018-04-27T07:48:49.946Z,7392
2018-04-27T07:49:15.626Z,7376
2018-04-27T07:49:41.136Z,7380
2018-04-27T07:50:06.906Z,7356
2018-04-27T07:50:32.544Z,7364
2018-04-27T07:50:58.091Z,7364
2018-04-27T07:51:23.708Z,7344
2018-04-27T07:51:49.213Z,7404
2018-04-27T07:52:15.000Z,7376
2018-04-27T07:52:40.600Z,7312
2018-04-27T07:53:06.084Z,7272
2018-04-27T07:53:31.680Z,7280
2018-04-27T07:53:57.441Z,7276
2018-04-27T07:54:23.069Z,7260
2018-04-27T07:54:48.576Z,7292
2018-04-27T07:55:14.264Z,7296
2018-04-27T07:55:39.767Z,7292
2018-04-27T07:56:05.308Z,7328
2018-04-27T07:56:30.799Z,7384
2018-04-27T07:56:56.651Z,7420
2018-04-27T07:57:21.924Z,7452
2018-04-27T07:57:47.522Z,7492
2018-04-27T07:58:13.185Z,7472
2018-04-27T07:58:38.671Z,7508
2018-04-27T07:59:04.168Z,7572
2018-04-27T07:59:29.984Z,7560
2018-04-27T07:59:55.547Z,7516
2018-04-27T08:00:21.128Z,7544
2018-04-27T08:00:46.830Z,7520
2018-04-27T08:01:12.707Z,7560
2018-04-27T08:01:39.458Z,7576
2018-04-27T08:02:05.277Z,7572
2018-04-27T08:02:30.539Z,7620
2018-04-27T08:02:56.108Z,7580
2018-04-27T08:03:21.536Z,7508
2018-04-27T08:03:47.093Z,7444
2018-04-27T08:04:12.776Z,7388
2018-04-27T08:04:38.253Z,7352
2018-04-27T08:05:03.761Z,7312
2018-04-27T08:05:29.432Z,7248
2018-04-27T08:05:55.176Z,7340
2018-04-27T08:06:21.238Z,7352
2018-04-27T08:06:46.710Z,7320
2018-04-27T08:07:12.495Z,7284
2018-04-27T08:07:37.995Z,7260
2018-04-27T08:08:03.576Z,7216
2018-04-27T08:08:29.348Z,7164
2018-04-27T08:08:54.935Z,7036
2018-04-27T08:09:20.338Z,7012
2018-04-27T08:09:46.103Z,6928
2018-04-27T08:10:11.870Z,6904
2018-04-27T08:10:37.739Z,6924
2018-04-27T08:11:03.111Z,6872
2018-04-27T08:11:28.610Z,6828
2018-04-27T08:11:54.126Z,6848
2018-04-27T08:12:19.613Z,6888
2018-04-27T08:12:45.346Z,6920
2018-04-27T08:13:10.866Z,6988
2018-04-27T08:13:36.559Z,6992
2018-04-27T08:14:02.052Z,7012
2018-04-27T08:14:27.526Z,7032
2018-04-27T08:14:53.041Z,7064
2018-04-27T08:15:18.555Z,7072
2018-04-27T08:15:44.099Z,7112
2018-04-27T08:16:09.579Z,7124
2018-04-27T08:16:35.071Z,7176
2018-04-27T08:17:00.813Z,7280
2018-04-27T08:17:26.286Z,7340
2018-04-27T08:17:51.771Z,7408
2018-04-27T08:18:17.267Z,7492
2018-04-27T08:18:42.790Z,7532
2018-04-27T08:19:08.258Z,7548
2018-04-27T08:19:33.742Z,7560
2018-04-27T08:19:59.266Z,7532
2018-04-27T08:20:24.774Z,7568
2018-04-27T08:21:48.309Z,7668
2018-04-27T08:22:13.794Z,7700
2018-04-27T08:22:39.297Z,7716
2018-04-27T08:23:04.791Z,7728
2018-04-27T08:23:30.277Z,7744
2018-04-27T08:23:55.784Z,7804
2018-04-27T08:24:21.264Z,7900
2018-04-27T08:24:46.759Z,7924
2018-04-27T08:25:12.224Z,7972
2018-04-27T08:25:37.745Z,7956
2018-04-27T08:26:03.245Z,8004
2018-04-27T08:26:28.750Z,8072
2018-04-27T08:26:54.252Z,8104
2018-04-27T08:27:19.736Z,8180
2018-04-27T08:27:45.245Z,8260
2018-04-27T08:28:10.747Z,8376
2018-04-27T08:28:36.228Z,8444
2018-04-27T08:29:01.768Z,8588
2018-04-27T08:29:27.210Z,8712
2018-04-27T08:29:52.710Z,8908
2018-04-27T08:30:18.264Z,9044
2018-04-27T08:30:43.664Z,9196
2018-04-27T08:31:09.255Z,9340
2018-04-27T08:31:34.727Z,9500
2018-04-27T08:32:00.339Z,9688
2018-04-27T08:32:25.852Z,9888
2018-04-27T08:32:51.380Z,10048
2018-04-27T08:33:16.969Z,10184
2018-04-27T08:33:42.714Z,10288
2018-04-27T08:34:08.269Z,10424
2018-04-27T08:34:33.974Z,10540
2018-04-27T08:34:59.526Z,10640
2018-04-27T08:35:25.122Z,10700
2018-04-27T08:35:50.673Z,10772
2018-04-27T08:36:16.284Z,10860
2018-04-27T08:36:41.728Z,10948
2018-04-27T08:37:07.265Z,11036
2018-04-27T08:37:32.868Z,11140
2018-04-27T08:37:58.496Z,11228
2018-04-27T08:38:24.061Z,11316
2018-04-27T08:38:49.713Z,11392
2018-04-27T08:39:15.193Z,11440
2018-04-27T08:39:40.859Z,11484
2018-04-27T08:40:06.448Z,11508
2018-04-27T08:40:32.025Z,11492
2018-04-27T08:40:57.761Z,11464
2018-04-27T08:41:23.262Z,11456
2018-04-27T08:41:48.847Z,11448
2018-04-27T08:42:14.405Z,11452
2018-04-27T08:42:39.989Z,11460
2018-04-27T08:43:05.707Z,11468
2018-04-27T08:43:31.263Z,11468
2018-04-27T08:43:56.885Z,11468
2018-04-27T08:44:22.472Z,11500
2018-04-27T08:44:48.073Z,11556
2018-04-27T08:45:13.657Z,11616
2018-04-27T08:45:39.132Z,11684
2018-04-27T08:46:04.767Z,11728
2018-04-27T08:46:30.400Z,11756
2018-04-27T08:46:55.925Z,11756
2018-04-27T08:47:21.485Z,11732
2018-04-27T08:47:47.055Z,11736
2018-04-27T08:48:12.495Z,11772
2018-04-27T08:48:38.030Z,11832
2018-04-27T08:49:03.515Z,11884
2018-04-27T08:49:29.007Z,11956
2018-04-27T08:49:54.516Z,12004
2018-04-27T08:50:20.107Z,12048
2018-04-27T08:50:45.581Z,12108
2018-04-27T08:51:11.146Z,12164
2018-04-27T08:51:36.615Z,12196
2018-04-27T08:52:02.181Z,12220
2018-04-27T08:52:27.730Z,12200
2018-04-27T08:52:53.217Z,12204
2018-04-27T08:53:18.834Z,12180
2018-04-27T08:53:44.371Z,12176
2018-04-27T08:54:09.854Z,12164
2018-04-27T08:54:35.420Z,12156
2018-04-27T08:55:00.877Z,12132
2018-04-27T08:55:26.416Z,12128
2018-04-27T08:55:51.880Z,12108
2018-04-27T08:56:17.380Z,12076
2018-04-27T08:56:42.885Z,12060
2018-04-27T08:57:08.428Z,12040
2018-04-27T08:57:33.948Z,12012
2018-04-27T08:57:59.663Z,12012
2018-04-27T08:58:25.109Z,12040
2018-04-27T08:58:50.671Z,12108
2018-04-27T08:59:16.225Z,12180
2018-04-27T08:59:41.756Z,12252
2018-04-27T09:00:07.215Z,12320
2018-04-27T09:00:32.760Z,12388
2018-04-27T09:00:58.249Z,12444
2018-04-27T09:02:17.210Z,12556
2018-04-27T09:02:42.798Z,12640
2018-04-27T09:03:08.209Z,12696
2018-04-27T09:03:33.707Z,12748
2018-04-27T09:03:59.251Z,12804
2018-04-27T09:04:24.715Z,12868
2018-04-27T09:04:50.232Z,12948
2018-04-27T09:05:15.668Z,13016
2018-04-27T09:05:41.132Z,13076
2018-04-27T09:06:06.619Z,13120
2018-04-27T09:06:32.219Z,13152
2018-04-27T09:06:57.673Z,13168
2018-04-27T09:07:23.153Z,13192
2018-04-27T09:07:48.681Z,13204
2018-04-27T09:08:14.198Z,13236
2018-04-27T09:08:39.712Z,13252
2018-04-27T09:09:05.238Z,13296
2018-04-27T09:09:30.743Z,13320
2018-04-27T09:09:56.227Z,13356
2018-04-27T09:10:21.772Z,13428
2018-04-27T09:10:47.347Z,13536
2018-04-27T09:11:12.801Z,13636
2018-04-27T09:11:38.302Z,13724
2018-04-27T09:12:03.829Z,13788
2018-04-27T09:12:29.365Z,13824
2018-04-27T09:12:54.867Z,13852
2018-04-27T09:13:20.355Z,13856
2018-04-27T09:13:45.922Z,13824
2018-04-27T09:14:11.430Z,13804
2018-04-27T09:14:36.966Z,13788
2018-04-27T09:15:02.462Z,13804
2018-04-27T09:15:27.930Z,13796
2018-04-27T09:15:53.454Z,13844
2018-04-27T09:16:18.959Z,13996
2018-04-27T09:16:44.409Z,14192
2018-04-27T09:17:53.626Z,14440
2018-04-27T09:18:19.012Z,14440
2018-04-27T09:18:44.606Z,14440
2018-04-27T09:19:10.146Z,14400
2018-04-27T09:19:35.592Z,14412
2018-04-27T09:20:01.193Z,14404
2018-04-27T09:20:26.638Z,14272
2018-04-27T09:20:52.132Z,14168
2018-04-27T09:21:17.686Z,14188
2018-04-27T09:21:43.255Z,14200
2018-04-27T09:22:08.800Z,14252
2018-04-27T09:22:34.451Z,14384
2018-04-27T09:22:59.915Z,14460
2018-04-27T09:23:25.395Z,14492
2018-04-27T09:23:50.919Z,14528
2018-04-27T09:24:16.409Z,14472
2018-04-27T09:24:42.005Z,14404
2018-04-27T09:25:07.389Z,14292
2018-04-27T09:25:32.931Z,14140
2018-04-27T09:25:58.394Z,14008
2018-04-27T09:26:23.902Z,13876
2018-04-27T09:26:49.616Z,13812
2018-04-27T09:27:15.086Z,13788
2018-04-27T09:27:40.565Z,13804
2018-04-27T09:28:06.128Z,13836
2018-04-27T09:28:31.664Z,13844
2018-04-27T09:28:57.172Z,13848
2018-04-27T09:29:22.691Z,13844
2018-04-27T09:29:48.266Z,13804
2018-04-27T09:30:13.750Z,13756
2018-04-27T09:30:39.280Z,13716
2018-04-27T09:31:04.862Z,13676
2018-04-27T09:31:30.368Z,13588
2018-04-27T09:31:55.855Z,13536
2018-04-27T09:32:21.341Z,13480
2018-04-27T09:32:46.983Z,13544
2018-04-27T09:33:12.488Z,13648
2018-04-27T09:33:37.988Z,13848
2018-04-27T09:34:03.549Z,13796
2018-04-27T09:34:29.096Z,13772
2018-04-27T09:34:54.659Z,13888
2018-04-27T09:35:20.218Z,13788
2018-04-27T09:35:45.680Z,13800
2018-04-27T09:36:11.205Z,13784
2018-04-27T09:36:36.722Z,13668
2018-04-27T09:37:02.236Z,13564
2018-04-27T09:37:27.770Z,13368
2018-04-27T09:37:53.254Z,13228
2018-04-27T09:38:18.776Z,13068
2018-04-27T09:38:44.262Z,12860
2018-04-27T09:39:09.762Z,12712
2018-04-27T09:39:35.266Z,12528
2018-04-27T09:40:00.782Z,12284
2018-04-27T09:40:26.312Z,12096
2018-04-27T09:40:51.784Z,11948
2018-04-27T09:41:17.266Z,11748
2018-04-27T09:41:42.969Z,11748
2018-04-27T09:42:08.459Z,11876
2018-04-27T09:42:33.996Z,12148
2018-04-27T09:42:59.482Z,12432
2018-04-27T09:43:24.983Z,12712
2018-04-27T09:43:50.434Z,13044
2018-04-27T09:44:15.952Z,13216
2018-04-27T09:44:41.476Z,13396
2018-04-27T09:45:07.053Z,13508
2018-04-27T09:45:32.591Z,13544
2018-04-27T09:45:58.123Z,13612
2018-04-27T09:46:23.642Z,13640
2018-04-27T09:46:49.167Z,13648
2018-04-27T09:47:14.680Z,13696
2018-04-27T09:47:40.245Z,13788
2018-04-27T09:48:05.828Z,13752
2018-04-27T09:48:31.409Z,13716
2018-04-27T09:48:56.893Z,13608
2018-04-27T09:49:22.442Z,13596
2018-04-27T09:49:48.010Z,13592
2018-04-27T09:50:13.585Z,13684
2018-04-27T09:50:39.149Z,13816
2018-04-27T09:51:04.624Z,13984
2018-04-27T09:51:30.269Z,14088
2018-04-27T09:51:56.041Z,14216
2018-04-27T09:52:21.571Z,14304
2018-04-27T09:52:47.148Z,14364